sensor_id;sensor_type;location;lat;lon;timestamp;temperature;humidity
61201;DHT22;47065;52.898;6.992;2024-03-07T00:00:20;5.50;99.90
61201;DHT22;47065;52.898;6.992;2024-03-07T00:02:50;5.50;99.90
61201;DHT22;47065;52.898;6.992;2024-03-07T00:05:21;5.40;99.90
61201;DHT22;47065;52.898;6.992;2024-03-07T00:07:50;5.40;99.90
61201;DHT22;47065;52.898;6.992;2024-03-07T00:10:16;5.30;99.90
61201;DHT22;47065;52.898;6.992;2024-03-07T00:12:42;5.30;99.90
61201;DHT22;47065;52.898;6.992;2024-03-07T00:15:09;5.30;99.90
61201;DHT22;47065;52.898;6.992;2024-03-07T00:17:37;5.20;99.90
61201;DHT22;47065;52.898;6.992;2024-03-07T00:20:03;5.20;99.90
61201;DHT22;47065;52.898;6.992;2024-03-07T00:22:32;5.20;99.90
61201;DHT22;47065;52.898;6.992;2024-03-07T00:24:58;5.10;99.90
61201;DHT22;47065;52.898;6.992;2024-03-07T00:27:24;5.10;99.90
61201;DHT22;47065;52.898;6.992;2024-03-07T00:29:51;5.10;99.90
61201;DHT22;47065;52.898;6.992;2024-03-07T00:32:23;5.10;99.90
61201;DHT22;47065;52.898;6.992;2024-03-07T00:34:49;5.10;99.90
61201;DHT22;47065;52.898;6.992;2024-03-07T00:37:16;5.10;99.90
61201;DHT22;47065;52.898;6.992;2024-03-07T00:39:41;5.10;99.90
61201;DHT22;47065;52.898;6.992;2024-03-07T00:42:08;5.10;99.90
61201;DHT22;47065;52.898;6.992;2024-03-07T00:44:33;5.00;99.90
61201;DHT22;47065;52.898;6.992;2024-03-07T00:47:02;5.00;99.90
61201;DHT22;47065;52.898;6.992;2024-03-07T00:49:29;5.00;99.90
61201;DHT22;47065;52.898;6.992;2024-03-07T00:51:55;5.00;99.90
61201;DHT22;47065;52.898;6.992;2024-03-07T00:54:21;5.00;99.90
61201;DHT22;47065;52.898;6.992;2024-03-07T00:56:47;4.90;99.90
61201;DHT22;47065;52.898;6.992;2024-03-07T00:59:16;4.90;99.90
61201;DHT22;47065;52.898;6.992;2024-03-07T01:01:42;4.90;99.90
61201;DHT22;47065;52.898;6.992;2024-03-07T01:04:08;4.90;99.90
61201;DHT22;47065;52.898;6.992;2024-03-07T01:06:34;4.80;99.90
61201;DHT22;47065;52.898;6.992;2024-03-07T01:09:01;4.80;99.90
61201;DHT22;47065;52.898;6.992;2024-03-07T01:11:27;4.80;99.90
61201;DHT22;47065;52.898;6.992;2024-03-07T01:13:53;4.70;99.90
61201;DHT22;47065;52.898;6.992;2024-03-07T01:16:18;4.70;99.90
61201;DHT22;47065;52.898;6.992;2024-03-07T01:18:44;4.60;99.90
61201;DHT22;47065;52.898;6.992;2024-03-07T01:21:10;4.60;99.90
61201;DHT22;47065;52.898;6.992;2024-03-07T01:23:36;4.60;99.90
61201;DHT22;47065;52.898;6.992;2024-03-07T01:26:01;4.50;99.90
61201;DHT22;47065;52.898;6.992;2024-03-07T01:28:28;4.50;99.90
61201;DHT22;47065;52.898;6.992;2024-03-07T01:30:57;4.40;99.90
61201;DHT22;47065;52.898;6.992;2024-03-07T01:33:23;4.40;99.90
61201;DHT22;47065;52.898;6.992;2024-03-07T01:35:49;4.40;99.90
61201;DHT22;47065;52.898;6.992;2024-03-07T01:38:15;4.30;99.90
61201;DHT22;47065;52.898;6.992;2024-03-07T01:40:42;4.20;99.90
61201;DHT22;47065;52.898;6.992;2024-03-07T01:43:09;4.20;99.90
61201;DHT22;47065;52.898;6.992;2024-03-07T01:45:35;4.20;99.90
61201;DHT22;47065;52.898;6.992;2024-03-07T01:48:04;4.10;99.90
61201;DHT22;47065;52.898;6.992;2024-03-07T01:50:30;4.00;99.90
61201;DHT22;47065;52.898;6.992;2024-03-07T01:52:55;4.00;99.90
61201;DHT22;47065;52.898;6.992;2024-03-07T01:55:22;4.00;99.90
61201;DHT22;47065;52.898;6.992;2024-03-07T01:57:49;3.90;99.90
61201;DHT22;47065;52.898;6.992;2024-03-07T02:00:15;3.90;99.90
61201;DHT22;47065;52.898;6.992;2024-03-07T02:02:43;3.90;99.90
61201;DHT22;47065;52.898;6.992;2024-03-07T02:05:09;3.80;99.90
61201;DHT22;47065;52.898;6.992;2024-03-07T02:07:36;3.80;99.90
61201;DHT22;47065;52.898;6.992;2024-03-07T02:10:03;3.70;99.90
61201;DHT22;47065;52.898;6.992;2024-03-07T02:12:30;3.70;99.90
61201;DHT22;47065;52.898;6.992;2024-03-07T02:14:56;3.70;99.90
61201;DHT22;47065;52.898;6.992;2024-03-07T02:17:26;3.60;99.90
61201;DHT22;47065;52.898;6.992;2024-03-07T02:19:52;3.60;99.90
61201;DHT22;47065;52.898;6.992;2024-03-07T02:22:19;3.60;99.90
61201;DHT22;47065;52.898;6.992;2024-03-07T02:24:45;3.50;99.90
61201;DHT22;47065;52.898;6.992;2024-03-07T02:27:13;3.50;99.90
61201;DHT22;47065;52.898;6.992;2024-03-07T02:29:40;3.50;99.90
61201;DHT22;47065;52.898;6.992;2024-03-07T02:32:07;3.40;99.90
61201;DHT22;47065;52.898;6.992;2024-03-07T02:34:32;3.40;99.90
61201;DHT22;47065;52.898;6.992;2024-03-07T02:36:58;3.40;99.90
61201;DHT22;47065;52.898;6.992;2024-03-07T02:39:24;3.30;99.90
61201;DHT22;47065;52.898;6.992;2024-03-07T02:41:52;3.30;99.90
61201;DHT22;47065;52.898;6.992;2024-03-07T02:44:18;3.20;99.90
61201;DHT22;47065;52.898;6.992;2024-03-07T02:46:45;3.20;99.90
61201;DHT22;47065;52.898;6.992;2024-03-07T02:49:15;3.20;99.90
61201;DHT22;47065;52.898;6.992;2024-03-07T02:51:40;3.20;99.90
61201;DHT22;47065;52.898;6.992;2024-03-07T02:54:09;3.10;99.90
61201;DHT22;47065;52.898;6.992;2024-03-07T02:56:35;3.10;99.90
61201;DHT22;47065;52.898;6.992;2024-03-07T02:59:00;3.10;99.90
61201;DHT22;47065;52.898;6.992;2024-03-07T03:01:26;3.00;99.90
61201;DHT22;47065;52.898;6.992;2024-03-07T03:03:52;3.00;99.90
61201;DHT22;47065;52.898;6.992;2024-03-07T03:06:18;3.00;99.90
61201;DHT22;47065;52.898;6.992;2024-03-07T03:08:46;2.90;99.90
61201;DHT22;47065;52.898;6.992;2024-03-07T03:11:12;2.90;99.90
61201;DHT22;47065;52.898;6.992;2024-03-07T03:13:42;2.90;99.90
61201;DHT22;47065;52.898;6.992;2024-03-07T03:16:08;2.80;99.90
61201;DHT22;47065;52.898;6.992;2024-03-07T03:18:35;2.80;99.90
61201;DHT22;47065;52.898;6.992;2024-03-07T03:21:01;2.80;99.90
61201;DHT22;47065;52.898;6.992;2024-03-07T03:23:28;2.80;99.90
61201;DHT22;47065;52.898;6.992;2024-03-07T03:25:54;2.70;99.90
61201;DHT22;47065;52.898;6.992;2024-03-07T03:28:21;2.70;99.90
61201;DHT22;47065;52.898;6.992;2024-03-07T03:30:48;2.70;99.90
61201;DHT22;47065;52.898;6.992;2024-03-07T03:33:14;2.60;99.90
61201;DHT22;47065;52.898;6.992;2024-03-07T03:35:41;2.60;99.90
61201;DHT22;47065;52.898;6.992;2024-03-07T03:38:07;2.60;99.90
61201;DHT22;47065;52.898;6.992;2024-03-07T03:40:34;2.60;99.90
61201;DHT22;47065;52.898;6.992;2024-03-07T03:43:00;2.50;99.90
61201;DHT22;47065;52.898;6.992;2024-03-07T03:45:26;2.60;99.90
61201;DHT22;47065;52.898;6.992;2024-03-07T03:47:52;2.50;99.90
61201;DHT22;47065;52.898;6.992;2024-03-07T03:50:18;2.50;99.90
61201;DHT22;47065;52.898;6.992;2024-03-07T03:52:44;2.50;99.90
61201;DHT22;47065;52.898;6.992;2024-03-07T03:55:10;2.60;99.90
61201;DHT22;47065;52.898;6.992;2024-03-07T03:57:38;2.50;99.90
61201;DHT22;47065;52.898;6.992;2024-03-07T04:00:06;2.50;99.90
61201;DHT22;47065;52.898;6.992;2024-03-07T04:02:43;2.40;99.90
61201;DHT22;47065;52.898;6.992;2024-03-07T04:05:10;2.40;99.90
61201;DHT22;47065;52.898;6.992;2024-03-07T04:07:37;2.40;99.90
61201;DHT22;47065;52.898;6.992;2024-03-07T04:10:04;2.40;99.90
61201;DHT22;47065;52.898;6.992;2024-03-07T04:12:33;2.30;99.90
61201;DHT22;47065;52.898;6.992;2024-03-07T04:14:59;2.30;99.90
61201;DHT22;47065;52.898;6.992;2024-03-07T04:17:26;2.30;99.90
61201;DHT22;47065;52.898;6.992;2024-03-07T04:19:52;2.30;99.90
61201;DHT22;47065;52.898;6.992;2024-03-07T04:22:18;2.30;99.90
61201;DHT22;47065;52.898;6.992;2024-03-07T04:24:45;2.20;99.90
61201;DHT22;47065;52.898;6.992;2024-03-07T04:27:11;2.20;99.90
61201;DHT22;47065;52.898;6.992;2024-03-07T04:29:37;2.20;99.90
61201;DHT22;47065;52.898;6.992;2024-03-07T04:32:03;2.20;99.90
61201;DHT22;47065;52.898;6.992;2024-03-07T04:34:32;2.20;99.90
61201;DHT22;47065;52.898;6.992;2024-03-07T04:36:58;2.10;99.90
61201;DHT22;47065;52.898;6.992;2024-03-07T04:39:25;2.10;99.90
61201;DHT22;47065;52.898;6.992;2024-03-07T04:42:01;2.10;99.90
61201;DHT22;47065;52.898;6.992;2024-03-07T04:44:28;2.10;99.90
61201;DHT22;47065;52.898;6.992;2024-03-07T04:46:54;2.00;99.90
61201;DHT22;47065;52.898;6.992;2024-03-07T04:49:27;2.00;99.90
61201;DHT22;47065;52.898;6.992;2024-03-07T04:51:56;2.00;99.90
61201;DHT22;47065;52.898;6.992;2024-03-07T04:54:24;2.00;99.90
61201;DHT22;47065;52.898;6.992;2024-03-07T04:56:51;2.00;99.90
61201;DHT22;47065;52.898;6.992;2024-03-07T04:59:18;1.90;99.90
61201;DHT22;47065;52.898;6.992;2024-03-07T05:01:45;1.90;99.90
61201;DHT22;47065;52.898;6.992;2024-03-07T05:04:12;1.90;99.90
61201;DHT22;47065;52.898;6.992;2024-03-07T05:06:38;1.90;99.90
61201;DHT22;47065;52.898;6.992;2024-03-07T05:09:06;1.90;99.90
61201;DHT22;47065;52.898;6.992;2024-03-07T05:11:36;1.80;99.90
61201;DHT22;47065;52.898;6.992;2024-03-07T05:14:03;1.80;99.90
61201;DHT22;47065;52.898;6.992;2024-03-07T05:16:30;1.80;99.90
61201;DHT22;47065;52.898;6.992;2024-03-07T05:18:56;1.80;99.90
61201;DHT22;47065;52.898;6.992;2024-03-07T05:21:26;1.80;99.90
61201;DHT22;47065;52.898;6.992;2024-03-07T05:23:57;1.80;99.90
61201;DHT22;47065;52.898;6.992;2024-03-07T05:26:24;1.80;99.90
61201;DHT22;47065;52.898;6.992;2024-03-07T05:28:50;1.70;99.90
61201;DHT22;47065;52.898;6.992;2024-03-07T05:31:17;1.70;99.90
61201;DHT22;47065;52.898;6.992;2024-03-07T05:33:44;1.70;99.90
61201;DHT22;47065;52.898;6.992;2024-03-07T05:36:10;1.70;99.90
61201;DHT22;47065;52.898;6.992;2024-03-07T05:38:42;1.70;99.90
61201;DHT22;47065;52.898;6.992;2024-03-07T05:41:11;1.70;99.90
61201;DHT22;47065;52.898;6.992;2024-03-07T05:43:38;1.70;99.90
61201;DHT22;47065;52.898;6.992;2024-03-07T05:46:04;1.70;99.90
61201;DHT22;47065;52.898;6.992;2024-03-07T05:48:33;1.70;99.90
61201;DHT22;47065;52.898;6.992;2024-03-07T05:50:59;1.60;99.90
61201;DHT22;47065;52.898;6.992;2024-03-07T05:53:25;1.60;99.90
61201;DHT22;47065;52.898;6.992;2024-03-07T05:55:51;1.60;99.90
61201;DHT22;47065;52.898;6.992;2024-03-07T05:58:17;1.50;99.90
61201;DHT22;47065;52.898;6.992;2024-03-07T06:00:46;1.50;99.90
61201;DHT22;47065;52.898;6.992;2024-03-07T06:03:16;1.60;99.90
61201;DHT22;47065;52.898;6.992;2024-03-07T06:05:43;1.60;99.90
61201;DHT22;47065;52.898;6.992;2024-03-07T06:08:09;1.60;99.90
61201;DHT22;47065;52.898;6.992;2024-03-07T06:10:35;1.60;99.90
61201;DHT22;47065;52.898;6.992;2024-03-07T06:13:00;1.50;99.90
61201;DHT22;47065;52.898;6.992;2024-03-07T06:15:26;1.60;99.90
61201;DHT22;47065;52.898;6.992;2024-03-07T06:17:53;1.60;99.90
61201;DHT22;47065;52.898;6.992;2024-03-07T06:20:19;1.60;99.90
61201;DHT22;47065;52.898;6.992;2024-03-07T06:22:51;1.60;99.90
61201;DHT22;47065;52.898;6.992;2024-03-07T06:25:18;1.60;99.90
61201;DHT22;47065;52.898;6.992;2024-03-07T06:28:00;1.60;99.90
61201;DHT22;47065;52.898;6.992;2024-03-07T06:30:37;1.60;99.90
61201;DHT22;47065;52.898;6.992;2024-03-07T06:33:05;1.60;99.90
61201;DHT22;47065;52.898;6.992;2024-03-07T06:35:31;1.60;99.90
61201;DHT22;47065;52.898;6.992;2024-03-07T06:37:57;1.60;99.90
61201;DHT22;47065;52.898;6.992;2024-03-07T06:40:23;1.60;99.90
61201;DHT22;47065;52.898;6.992;2024-03-07T06:42:49;1.60;99.90
61201;DHT22;47065;52.898;6.992;2024-03-07T06:45:15;1.60;99.90
61201;DHT22;47065;52.898;6.992;2024-03-07T06:47:41;1.60;99.90
61201;DHT22;47065;52.898;6.992;2024-03-07T06:50:07;1.60;99.90
61201;DHT22;47065;52.898;6.992;2024-03-07T06:52:35;1.60;99.90
61201;DHT22;47065;52.898;6.992;2024-03-07T06:55:01;1.60;99.90
61201;DHT22;47065;52.898;6.992;2024-03-07T06:57:33;1.60;99.90
61201;DHT22;47065;52.898;6.992;2024-03-07T06:59:59;1.60;99.90
61201;DHT22;47065;52.898;6.992;2024-03-07T07:02:25;1.60;99.90
61201;DHT22;47065;52.898;6.992;2024-03-07T07:04:53;1.60;99.90
61201;DHT22;47065;52.898;6.992;2024-03-07T07:07:19;1.60;99.90
61201;DHT22;47065;52.898;6.992;2024-03-07T07:09:45;1.70;99.90
61201;DHT22;47065;52.898;6.992;2024-03-07T07:12:11;1.70;99.90
61201;DHT22;47065;52.898;6.992;2024-03-07T07:14:37;1.70;99.90
61201;DHT22;47065;52.898;6.992;2024-03-07T07:17:04;1.70;99.90
61201;DHT22;47065;52.898;6.992;2024-03-07T07:19:29;1.70;99.90
61201;DHT22;47065;52.898;6.992;2024-03-07T07:21:55;1.70;99.90
61201;DHT22;47065;52.898;6.992;2024-03-07T07:24:21;1.60;99.90
61201;DHT22;47065;52.898;6.992;2024-03-07T07:26:50;1.70;99.90
61201;DHT22;47065;52.898;6.992;2024-03-07T07:29:16;1.60;99.90
61201;DHT22;47065;52.898;6.992;2024-03-07T07:31:42;1.60;99.90
61201;DHT22;47065;52.898;6.992;2024-03-07T07:34:08;1.70;99.90
61201;DHT22;47065;52.898;6.992;2024-03-07T07:36:34;1.80;99.90
61201;DHT22;47065;52.898;6.992;2024-03-07T07:38:59;1.70;99.90
61201;DHT22;47065;52.898;6.992;2024-03-07T07:41:25;1.80;99.90
61201;DHT22;47065;52.898;6.992;2024-03-07T07:43:51;1.80;99.90
61201;DHT22;47065;52.898;6.992;2024-03-07T07:46:17;1.90;99.90
61201;DHT22;47065;52.898;6.992;2024-03-07T07:48:43;1.90;99.90
61201;DHT22;47065;52.898;6.992;2024-03-07T07:51:09;2.00;99.90
61201;DHT22;47065;52.898;6.992;2024-03-07T07:53:35;2.00;99.90
61201;DHT22;47065;52.898;6.992;2024-03-07T07:56:01;2.00;99.90
61201;DHT22;47065;52.898;6.992;2024-03-07T07:58:27;2.00;99.90
61201;DHT22;47065;52.898;6.992;2024-03-07T08:00:53;2.10;99.90
61201;DHT22;47065;52.898;6.992;2024-03-07T08:03:19;2.10;99.90
61201;DHT22;47065;52.898;6.992;2024-03-07T08:05:47;2.20;99.90
61201;DHT22;47065;52.898;6.992;2024-03-07T08:08:13;2.20;99.90
61201;DHT22;47065;52.898;6.992;2024-03-07T08:10:42;2.30;99.90
61201;DHT22;47065;52.898;6.992;2024-03-07T08:13:10;2.30;99.90
61201;DHT22;47065;52.898;6.992;2024-03-07T08:15:36;2.30;99.90
61201;DHT22;47065;52.898;6.992;2024-03-07T08:18:03;2.30;99.90
61201;DHT22;47065;52.898;6.992;2024-03-07T08:20:34;2.30;99.90
61201;DHT22;47065;52.898;6.992;2024-03-07T08:23:00;2.30;99.90
61201;DHT22;47065;52.898;6.992;2024-03-07T08:25:28;2.20;99.90
61201;DHT22;47065;52.898;6.992;2024-03-07T08:27:58;2.20;99.90
61201;DHT22;47065;52.898;6.992;2024-03-07T08:30:24;2.30;99.90
61201;DHT22;47065;52.898;6.992;2024-03-07T08:32:53;2.20;99.90
61201;DHT22;47065;52.898;6.992;2024-03-07T08:35:19;2.20;99.90
61201;DHT22;47065;52.898;6.992;2024-03-07T08:37:47;2.20;99.90
61201;DHT22;47065;52.898;6.992;2024-03-07T08:40:19;2.30;99.90
61201;DHT22;47065;52.898;6.992;2024-03-07T08:42:52;2.20;99.90
61201;DHT22;47065;52.898;6.992;2024-03-07T08:45:22;2.20;99.90
61201;DHT22;47065;52.898;6.992;2024-03-07T08:47:50;2.30;99.90
61201;DHT22;47065;52.898;6.992;2024-03-07T08:50:16;2.30;99.90
61201;DHT22;47065;52.898;6.992;2024-03-07T08:52:44;2.30;99.90
61201;DHT22;47065;52.898;6.992;2024-03-07T08:55:14;2.30;99.90
61201;DHT22;47065;52.898;6.992;2024-03-07T08:57:41;2.30;99.90
61201;DHT22;47065;52.898;6.992;2024-03-07T09:00:08;2.30;99.90
61201;DHT22;47065;52.898;6.992;2024-03-07T09:02:35;2.40;99.90
61201;DHT22;47065;52.898;6.992;2024-03-07T09:05:02;2.40;99.90
61201;DHT22;47065;52.898;6.992;2024-03-07T09:07:28;2.40;99.90
61201;DHT22;47065;52.898;6.992;2024-03-07T09:09:55;2.50;99.90
61201;DHT22;47065;52.898;6.992;2024-03-07T09:12:21;2.50;99.90
61201;DHT22;47065;52.898;6.992;2024-03-07T09:14:47;2.50;99.90
61201;DHT22;47065;52.898;6.992;2024-03-07T09:17:13;2.60;99.90
61201;DHT22;47065;52.898;6.992;2024-03-07T09:19:38;2.60;99.90
61201;DHT22;47065;52.898;6.992;2024-03-07T09:22:04;2.70;99.90
61201;DHT22;47065;52.898;6.992;2024-03-07T09:24:33;2.70;99.90
61201;DHT22;47065;52.898;6.992;2024-03-07T09:27:00;2.80;99.90
61201;DHT22;47065;52.898;6.992;2024-03-07T09:29:26;2.80;99.90
61201;DHT22;47065;52.898;6.992;2024-03-07T09:31:53;2.90;99.90
61201;DHT22;47065;52.898;6.992;2024-03-07T09:34:20;3.00;99.90
61201;DHT22;47065;52.898;6.992;2024-03-07T09:36:49;3.10;99.90
61201;DHT22;47065;52.898;6.992;2024-03-07T09:39:16;3.30;99.90
61201;DHT22;47065;52.898;6.992;2024-03-07T09:41:41;3.40;99.90
61201;DHT22;47065;52.898;6.992;2024-03-07T09:44:18;3.60;99.90
61201;DHT22;47065;52.898;6.992;2024-03-07T09:46:50;3.70;99.90
61201;DHT22;47065;52.898;6.992;2024-03-07T09:49:16;4.00;99.90
61201;DHT22;47065;52.898;6.992;2024-03-07T09:51:44;4.30;99.90
61201;DHT22;47065;52.898;6.992;2024-03-07T09:54:10;4.50;99.90
61201;DHT22;47065;52.898;6.992;2024-03-07T09:56:36;4.80;99.90
61201;DHT22;47065;52.898;6.992;2024-03-07T09:59:04;5.10;99.90
61201;DHT22;47065;52.898;6.992;2024-03-07T10:01:33;5.40;99.90
61201;DHT22;47065;52.898;6.992;2024-03-07T10:04:00;5.60;99.90
61201;DHT22;47065;52.898;6.992;2024-03-07T10:06:40;6.00;99.90
61201;DHT22;47065;52.898;6.992;2024-03-07T10:09:07;6.20;99.90
61201;DHT22;47065;52.898;6.992;2024-03-07T10:11:33;6.50;99.90
61201;DHT22;47065;52.898;6.992;2024-03-07T10:14:00;6.80;99.90
61201;DHT22;47065;52.898;6.992;2024-03-07T10:16:26;7.00;99.90
61201;DHT22;47065;52.898;6.992;2024-03-07T10:18:51;7.20;99.90
61201;DHT22;47065;52.898;6.992;2024-03-07T10:21:20;7.40;99.90
61201;DHT22;47065;52.898;6.992;2024-03-07T10:23:47;7.50;99.90
61201;DHT22;47065;52.898;6.992;2024-03-07T10:26:12;7.60;99.90
61201;DHT22;47065;52.898;6.992;2024-03-07T10:28:38;7.70;99.90
61201;DHT22;47065;52.898;6.992;2024-03-07T10:31:04;7.60;99.90
61201;DHT22;47065;52.898;6.992;2024-03-07T10:33:37;7.50;99.90
61201;DHT22;47065;52.898;6.992;2024-03-07T10:36:03;7.40;99.90
61201;DHT22;47065;52.898;6.992;2024-03-07T10:38:29;7.20;99.90
61201;DHT22;47065;52.898;6.992;2024-03-07T10:40:55;7.10;99.90
61201;DHT22;47065;52.898;6.992;2024-03-07T10:43:22;7.00;99.90
61201;DHT22;47065;52.898;6.992;2024-03-07T10:45:48;6.80;99.90
61201;DHT22;47065;52.898;6.992;2024-03-07T10:48:18;6.70;99.90
61201;DHT22;47065;52.898;6.992;2024-03-07T10:51:06;6.70;99.90
61201;DHT22;47065;52.898;6.992;2024-03-07T10:56:17;6.40;99.90
61201;DHT22;47065;52.898;6.992;2024-03-07T10:59:07;6.40;99.90
61201;DHT22;47065;52.898;6.992;2024-03-07T11:01:49;6.30;99.90
61201;DHT22;47065;52.898;6.992;2024-03-07T11:04:22;6.20;99.90
61201;DHT22;47065;52.898;6.992;2024-03-07T11:06:48;6.20;99.90
61201;DHT22;47065;52.898;6.992;2024-03-07T11:09:15;6.20;99.90
61201;DHT22;47065;52.898;6.992;2024-03-07T11:11:48;6.20;99.90
61201;DHT22;47065;52.898;6.992;2024-03-07T11:14:15;6.20;99.90
61201;DHT22;47065;52.898;6.992;2024-03-07T11:16:42;6.20;99.90
61201;DHT22;47065;52.898;6.992;2024-03-07T11:19:28;6.40;99.90
61201;DHT22;47065;52.898;6.992;2024-03-07T11:21:56;6.50;99.90
61201;DHT22;47065;52.898;6.992;2024-03-07T11:24:26;6.70;99.90
61201;DHT22;47065;52.898;6.992;2024-03-07T11:26:55;6.80;99.90
61201;DHT22;47065;52.898;6.992;2024-03-07T11:32:09;6.90;99.90
61201;DHT22;47065;52.898;6.992;2024-03-07T11:34:38;6.90;99.90
61201;DHT22;47065;52.898;6.992;2024-03-07T11:37:10;6.90;99.90
61201;DHT22;47065;52.898;6.992;2024-03-07T11:39:48;6.80;99.90
61201;DHT22;47065;52.898;6.992;2024-03-07T11:42:36;6.70;99.90
61201;DHT22;47065;52.898;6.992;2024-03-07T11:45:03;6.80;99.90
61201;DHT22;47065;52.898;6.992;2024-03-07T11:47:38;6.70;99.90
61201;DHT22;47065;52.898;6.992;2024-03-07T11:50:07;6.70;99.90
61201;DHT22;47065;52.898;6.992;2024-03-07T11:52:39;6.60;99.90
61201;DHT22;47065;52.898;6.992;2024-03-07T11:55:09;6.50;99.90
61201;DHT22;47065;52.898;6.992;2024-03-07T11:57:36;6.50;99.90
61201;DHT22;47065;52.898;6.992;2024-03-07T12:00:04;6.50;99.90
61201;DHT22;47065;52.898;6.992;2024-03-07T12:02:39;6.30;99.90
61201;DHT22;47065;52.898;6.992;2024-03-07T12:05:05;6.30;99.90
61201;DHT22;47065;52.898;6.992;2024-03-07T12:07:32;6.20;99.90
61201;DHT22;47065;52.898;6.992;2024-03-07T12:09:59;6.20;99.90
61201;DHT22;47065;52.898;6.992;2024-03-07T12:12:25;6.20;99.90
61201;DHT22;47065;52.898;6.992;2024-03-07T12:14:54;6.20;99.90
61201;DHT22;47065;52.898;6.992;2024-03-07T12:17:23;6.20;99.90
61201;DHT22;47065;52.898;6.992;2024-03-07T12:19:50;6.20;99.90
61201;DHT22;47065;52.898;6.992;2024-03-07T12:22:19;6.20;99.90
61201;DHT22;47065;52.898;6.992;2024-03-07T12:24:59;6.20;99.90
61201;DHT22;47065;52.898;6.992;2024-03-07T12:27:28;6.30;99.90
61201;DHT22;47065;52.898;6.992;2024-03-07T12:29:55;6.30;99.90
61201;DHT22;47065;52.898;6.992;2024-03-07T12:32:20;6.30;99.90
61201;DHT22;47065;52.898;6.992;2024-03-07T12:34:46;6.30;99.90
61201;DHT22;47065;52.898;6.992;2024-03-07T12:37:13;6.30;99.90
61201;DHT22;47065;52.898;6.992;2024-03-07T12:39:43;6.40;99.90
61201;DHT22;47065;52.898;6.992;2024-03-07T12:42:16;6.40;99.90
61201;DHT22;47065;52.898;6.992;2024-03-07T12:44:47;6.40;99.90
61201;DHT22;47065;52.898;6.992;2024-03-07T12:47:17;6.40;99.90
61201;DHT22;47065;52.898;6.992;2024-03-07T12:49:43;6.30;99.90
61201;DHT22;47065;52.898;6.992;2024-03-07T12:52:09;6.40;99.90
61201;DHT22;47065;52.898;6.992;2024-03-07T12:54:36;6.40;99.90
61201;DHT22;47065;52.898;6.992;2024-03-07T12:57:11;6.40;99.90
61201;DHT22;47065;52.898;6.992;2024-03-07T12:59:40;6.40;99.90
61201;DHT22;47065;52.898;6.992;2024-03-07T13:02:10;6.40;99.90
61201;DHT22;47065;52.898;6.992;2024-03-07T13:04:37;6.40;99.90
61201;DHT22;47065;52.898;6.992;2024-03-07T13:07:06;6.50;99.90
61201;DHT22;47065;52.898;6.992;2024-03-07T13:09:34;6.50;99.90
61201;DHT22;47065;52.898;6.992;2024-03-07T13:12:01;6.40;99.90
61201;DHT22;47065;52.898;6.992;2024-03-07T13:14:30;6.40;99.90
61201;DHT22;47065;52.898;6.992;2024-03-07T13:17:04;6.50;99.90
61201;DHT22;47065;52.898;6.992;2024-03-07T13:19:30;6.50;99.90
61201;DHT22;47065;52.898;6.992;2024-03-07T13:21:57;6.40;99.90
61201;DHT22;47065;52.898;6.992;2024-03-07T13:24:23;6.50;99.90
61201;DHT22;47065;52.898;6.992;2024-03-07T13:26:50;6.50;99.90
61201;DHT22;47065;52.898;6.992;2024-03-07T13:29:16;6.50;99.90
61201;DHT22;47065;52.898;6.992;2024-03-07T13:31:45;6.60;99.90
61201;DHT22;47065;52.898;6.992;2024-03-07T13:34:11;6.60;99.90
61201;DHT22;47065;52.898;6.992;2024-03-07T13:36:40;6.50;99.90
61201;DHT22;47065;52.898;6.992;2024-03-07T13:39:07;6.60;99.90
61201;DHT22;47065;52.898;6.992;2024-03-07T13:41:37;6.70;99.90
61201;DHT22;47065;52.898;6.992;2024-03-07T13:44:04;6.60;99.90
61201;DHT22;47065;52.898;6.992;2024-03-07T13:46:30;6.60;99.90
61201;DHT22;47065;52.898;6.992;2024-03-07T13:49:01;6.70;99.90
61201;DHT22;47065;52.898;6.992;2024-03-07T13:51:37;6.70;99.90
61201;DHT22;47065;52.898;6.992;2024-03-07T13:54:06;6.70;99.90
61201;DHT22;47065;52.898;6.992;2024-03-07T14:03:16;6.70;99.90
61201;DHT22;47065;52.898;6.992;2024-03-07T14:06:05;6.70;99.90
61201;DHT22;47065;52.898;6.992;2024-03-07T14:08:56;6.80;99.90
61201;DHT22;47065;52.898;6.992;2024-03-07T14:18:12;6.80;99.90
61201;DHT22;47065;52.898;6.992;2024-03-07T14:21:21;6.90;99.90
61201;DHT22;47065;52.898;6.992;2024-03-07T14:27:34;6.90;99.90
61201;DHT22;47065;52.898;6.992;2024-03-07T14:30:21;7.00;99.90
61201;DHT22;47065;52.898;6.992;2024-03-07T14:33:01;7.00;99.90
61201;DHT22;47065;52.898;6.992;2024-03-07T14:36:07;7.10;99.90
61201;DHT22;47065;52.898;6.992;2024-03-07T14:38:47;7.10;99.90
61201;DHT22;47065;52.898;6.992;2024-03-07T14:41:15;7.20;99.90
61201;DHT22;47065;52.898;6.992;2024-03-07T14:43:43;7.30;99.90
61201;DHT22;47065;52.898;6.992;2024-03-07T14:46:13;7.30;99.90
61201;DHT22;47065;52.898;6.992;2024-03-07T14:48:40;7.30;99.90
61201;DHT22;47065;52.898;6.992;2024-03-07T14:51:07;7.40;99.90
61201;DHT22;47065;52.898;6.992;2024-03-07T14:53:34;7.40;99.90
61201;DHT22;47065;52.898;6.992;2024-03-07T14:56:00;7.40;99.90
61201;DHT22;47065;52.898;6.992;2024-03-07T14:58:26;7.40;99.90
61201;DHT22;47065;52.898;6.992;2024-03-07T15:00:52;7.50;99.90
61201;DHT22;47065;52.898;6.992;2024-03-07T15:03:20;7.50;99.90
61201;DHT22;47065;52.898;6.992;2024-03-07T15:05:46;7.50;99.90
61201;DHT22;47065;52.898;6.992;2024-03-07T15:08:16;7.50;99.90
61201;DHT22;47065;52.898;6.992;2024-03-07T15:10:50;7.50;99.90
61201;DHT22;47065;52.898;6.992;2024-03-07T15:13:17;7.40;99.90
61201;DHT22;47065;52.898;6.992;2024-03-07T15:15:43;7.40;99.90
61201;DHT22;47065;52.898;6.992;2024-03-07T15:18:10;7.40;99.90
61201;DHT22;47065;52.898;6.992;2024-03-07T15:20:36;7.30;99.90
61201;DHT22;47065;52.898;6.992;2024-03-07T15:23:02;7.20;99.90
61201;DHT22;47065;52.898;6.992;2024-03-07T15:25:29;7.20;99.90
61201;DHT22;47065;52.898;6.992;2024-03-07T15:27:56;7.10;99.90
61201;DHT22;47065;52.898;6.992;2024-03-07T15:30:23;7.00;99.90
61201;DHT22;47065;52.898;6.992;2024-03-07T15:33:02;7.00;99.90
61201;DHT22;47065;52.898;6.992;2024-03-07T15:35:29;6.90;99.90
61201;DHT22;47065;52.898;6.992;2024-03-07T15:37:56;6.90;99.90
61201;DHT22;47065;52.898;6.992;2024-03-07T15:40:22;6.90;99.90
61201;DHT22;47065;52.898;6.992;2024-03-07T15:42:50;6.80;99.90
61201;DHT22;47065;52.898;6.992;2024-03-07T15:45:24;6.80;99.90
61201;DHT22;47065;52.898;6.992;2024-03-07T15:47:58;6.70;99.90
61201;DHT22;47065;52.898;6.992;2024-03-07T15:50:36;6.70;99.90
61201;DHT22;47065;52.898;6.992;2024-03-07T15:53:03;6.70;99.90
61201;DHT22;47065;52.898;6.992;2024-03-07T15:55:31;6.60;99.90
61201;DHT22;47065;52.898;6.992;2024-03-07T15:58:00;6.60;99.90
61201;DHT22;47065;52.898;6.992;2024-03-07T16:00:30;6.50;99.90
61201;DHT22;47065;52.898;6.992;2024-03-07T16:02:57;6.50;99.90
61201;DHT22;47065;52.898;6.992;2024-03-07T16:05:25;6.50;99.90
61201;DHT22;47065;52.898;6.992;2024-03-07T16:07:52;6.40;99.90
61201;DHT22;47065;52.898;6.992;2024-03-07T16:10:19;6.40;99.90
61201;DHT22;47065;52.898;6.992;2024-03-07T16:12:45;6.30;99.90